sensor_id;sensor_type;location;lat;lon;timestamp;pressure;altitude;pressure_sealevel;temperature;humidity
10606;BME280;5350;42.698;23.148;2024-02-14T00:02:15;93386.09;;;5.15;100.00
10606;BME280;5350;42.698;23.148;2024-02-14T00:04:41;93376.97;;;5.17;100.00
10606;BME280;5350;42.698;23.148;2024-02-14T00:07:09;93386.88;;;5.25;100.00
10606;BME280;5350;42.698;23.148;2024-02-14T00:09:36;93386.34;;;5.18;100.00
10606;BME280;5350;42.698;23.148;2024-02-14T00:12:04;93386.34;;;5.23;100.00
10606;BME280;5350;42.698;23.148;2024-02-14T00:14:31;93399.91;;;5.20;100.00
10606;BME280;5350;42.698;23.148;2024-02-14T00:16:57;93387.41;;;5.17;100.00
10606;BME280;5350;42.698;23.148;2024-02-14T00:19:24;93388.94;;;5.13;100.00
10606;BME280;5350;42.698;23.148;2024-02-14T00:21:51;93395.47;;;5.21;100.00
10606;BME280;5350;42.698;23.148;2024-02-14T00:24:18;93390.00;;;5.27;100.00
10606;BME280;5350;42.698;23.148;2024-02-14T00:26:45;93386.34;;;5.23;100.00
10606;BME280;5350;42.698;23.148;2024-02-14T00:29:13;93401.22;;;5.23;100.00
10606;BME280;5350;42.698;23.148;2024-02-14T00:31:40;93401.75;;;5.25;100.00
10606;BME280;5350;42.698;23.148;2024-02-14T00:34:09;93390.53;;;5.19;100.00
10606;BME280;5350;42.698;23.148;2024-02-14T00:36:36;93404.59;;;5.23;100.00
10606;BME280;5350;42.698;23.148;2024-02-14T00:39:03;93405.66;;;5.27;100.00
10606;BME280;5350;42.698;23.148;2024-02-14T00:41:29;93404.84;;;5.37;100.00
10606;BME280;5350;42.698;23.148;2024-02-14T00:43:56;93409.28;;;5.26;100.00
10606;BME280;5350;42.698;23.148;2024-02-14T00:46:24;93412.69;;;5.32;100.00
10606;BME280;5350;42.698;23.148;2024-02-14T00:48:51;93407.19;;;5.28;100.00
10606;BME280;5350;42.698;23.148;2024-02-14T00:51:19;93416.09;;;5.27;100.00
10606;BME280;5350;42.698;23.148;2024-02-14T00:53:46;93404.59;;;5.23;100.00
10606;BME280;5350;42.698;23.148;2024-02-14T00:56:13;93406.41;;;5.28;100.00
10606;BME280;5350;42.698;23.148;2024-02-14T00:58:39;93409.03;;;5.33;100.00
10606;BME280;5350;42.698;23.148;2024-02-14T01:01:06;93409.03;;;5.33;100.00
10606;BME280;5350;42.698;23.148;2024-02-14T01:03:34;93415.56;;;5.35;100.00
10606;BME280;5350;42.698;23.148;2024-02-14T01:06:01;93409.31;;;5.31;100.00
10606;BME280;5350;42.698;23.148;2024-02-14T01:08:27;93412.16;;;5.40;100.00
10606;BME280;5350;42.698;23.148;2024-02-14T01:10:54;93419.47;;;5.38;100.00
10606;BME280;5350;42.698;23.148;2024-02-14T01:13:21;93412.69;;;5.37;100.00
10606;BME280;5350;42.698;23.148;2024-02-14T01:15:47;93424.94;;;5.36;100.00
10606;BME280;5350;42.698;23.148;2024-02-14T01:18:15;93417.63;;;5.28;100.00
10606;BME280;5350;42.698;23.148;2024-02-14T01:20:43;93414.50;;;5.16;100.00
10606;BME280;5350;42.698;23.148;2024-02-14T01:23:10;93420.50;;;5.27;100.00
10606;BME280;5350;42.698;23.148;2024-02-14T01:25:36;93413.75;;;5.36;100.00
10606;BME280;5350;42.698;23.148;2024-02-14T01:28:04;93418.94;;;5.26;100.00
10606;BME280;5350;42.698;23.148;2024-02-14T01:30:33;93414.50;;;5.31;100.00
10606;BME280;5350;42.698;23.148;2024-02-14T01:33:00;93427.03;;;5.29;100.00
10606;BME280;5350;42.698;23.148;2024-02-14T01:35:29;93419.22;;;5.29;100.00
10606;BME280;5350;42.698;23.148;2024-02-14T01:37:57;93424.69;;;5.33;100.00
10606;BME280;5350;42.698;23.148;2024-02-14T01:40:24;93425.75;;;5.32;100.00
10606;BME280;5350;42.698;23.148;2024-02-14T01:42:49;93429.38;;;5.36;100.00
10606;BME280;5350;42.698;23.148;2024-02-14T01:45:17;93420.75;;;5.30;100.00
10606;BME280;5350;42.698;23.148;2024-02-14T01:47:44;93422.34;;;5.31;100.00
10606;BME280;5350;42.698;23.148;2024-02-14T01:50:11;93422.59;;;5.25;100.00
10606;BME280;5350;42.698;23.148;2024-02-14T01:52:38;93422.06;;;5.28;100.00
10606;BME280;5350;42.698;23.148;2024-02-14T01:55:08;93416.09;;;5.27;100.00
10606;BME280;5350;42.698;23.148;2024-02-14T01:57:35;93423.38;;;5.30;100.00
10606;BME280;5350;42.698;23.148;2024-02-14T02:00:03;93414.50;;;5.31;100.00
10606;BME280;5350;42.698;23.148;2024-02-14T02:02:33;93414.50;;;5.26;100.00
10606;BME280;5350;42.698;23.148;2024-02-14T02:05:01;93391.31;;;5.15;100.00
10606;BME280;5350;42.698;23.148;2024-02-14T02:07:28;93411.09;;;5.16;100.00
10606;BME280;5350;42.698;23.148;2024-02-14T02:09:55;93427.28;;;5.08;100.00
10606;BME280;5350;42.698;23.148;2024-02-14T02:12:23;93420.50;;;5.12;100.00
10606;BME280;5350;42.698;23.148;2024-02-14T02:14:52;93424.16;;;5.21;100.00
10606;BME280;5350;42.698;23.148;2024-02-14T02:17:19;93420.22;;;5.13;100.00
10606;BME280;5350;42.698;23.148;2024-02-14T02:19:46;93419.19;;;5.09;100.00
10606;BME280;5350;42.698;23.148;2024-02-14T02:22:13;93424.44;;;5.19;100.00
10606;BME280;5350;42.698;23.148;2024-02-14T02:24:41;93422.06;;;5.18;100.00
10606;BME280;5350;42.698;23.148;2024-02-14T02:27:07;93421.56;;;5.11;100.00
10606;BME280;5350;42.698;23.148;2024-02-14T02:29:35;93436.91;;;5.07;100.00
10606;BME280;5350;42.698;23.148;2024-02-14T02:32:03;93427.78;;;5.10;100.00
10606;BME280;5350;42.698;23.148;2024-02-14T02:34:31;93429.38;;;5.16;100.00
10606;BME280;5350;42.698;23.148;2024-02-14T02:36:58;93434.34;;;5.17;100.00
10606;BME280;5350;42.698;23.148;2024-02-14T02:39:25;93444.75;;;5.17;100.00
10606;BME280;5350;42.698;23.148;2024-02-14T02:41:53;93438.50;;;5.23;100.00
10606;BME280;5350;42.698;23.148;2024-02-14T02:44:22;93455.19;;;5.12;100.00
10606;BME280;5350;42.698;23.148;2024-02-14T02:46:49;93451.00;;;5.16;100.00
10606;BME280;5350;42.698;23.148;2024-02-14T02:49:16;93451.00;;;5.16;100.00
10606;BME280;5350;42.698;23.148;2024-02-14T02:51:42;93459.63;;;5.22;100.00
10606;BME280;5350;42.698;23.148;2024-02-14T02:54:09;93461.44;;;5.16;100.00
10606;BME280;5350;42.698;23.148;2024-02-14T02:56:37;93462.47;;;5.20;100.00
10606;BME280;5350;42.698;23.148;2024-02-14T02:59:05;93461.44;;;5.16;100.00
10606;BME280;5350;42.698;23.148;2024-02-14T03:01:35;93455.72;;;5.19;100.00
10606;BME280;5350;42.698;23.148;2024-02-14T03:04:02;93465.63;;;5.22;100.00
10606;BME280;5350;42.698;23.148;2024-02-14T03:06:28;93464.56;;;5.18;100.00
10606;BME280;5350;42.698;23.148;2024-02-14T03:08:55;93467.19;;;5.28;100.00
10606;BME280;5350;42.698;23.148;2024-02-14T03:11:23;93475.78;;;5.24;100.00
10606;BME280;5350;42.698;23.148;2024-02-14T03:13:50;93468.75;;;5.19;100.00
10606;BME280;5350;42.698;23.148;2024-02-14T03:16:18;93478.94;;;5.36;100.00
10606;BME280;5350;42.698;23.148;2024-02-14T03:18:45;93487.81;;;5.40;100.00
10606;BME280;5350;42.698;23.148;2024-02-14T03:21:11;93486.50;;;5.47;100.00
10606;BME280;5350;42.698;23.148;2024-02-14T03:23:38;93495.38;;;5.41;100.00
10606;BME280;5350;42.698;23.148;2024-02-14T03:26:06;93496.16;;;5.42;100.00
10606;BME280;5350;42.698;23.148;2024-02-14T03:28:34;93497.44;;;5.24;100.00
10606;BME280;5350;42.698;23.148;2024-02-14T03:31:01;93497.97;;;5.21;100.00
10606;BME280;5350;42.698;23.148;2024-02-14T03:33:29;93505.25;;;5.14;100.00
10606;BME280;5350;42.698;23.148;2024-02-14T03:35:56;93498.19;;;5.10;100.00
10606;BME280;5350;42.698;23.148;2024-02-14T03:38:26;93500.03;;;5.24;100.00
10606;BME280;5350;42.698;23.148;2024-02-14T03:40:52;93500.00;;;5.09;100.00
10606;BME280;5350;42.698;23.148;2024-02-14T03:43:19;93502.59;;;5.09;100.00
10606;BME280;5350;42.698;23.148;2024-02-14T03:45:47;93503.66;;;4.98;100.00
10606;BME280;5350;42.698;23.148;2024-02-14T03:48:14;93508.34;;;5.01;100.00
10606;BME280;5350;42.698;23.148;2024-02-14T03:50:42;93502.09;;;5.02;100.00
10606;BME280;5350;42.698;23.148;2024-02-14T03:53:09;93504.66;;;4.97;100.00
10606;BME280;5350;42.698;23.148;2024-02-14T03:55:36;93508.34;;;5.01;100.00
10606;BME280;5350;42.698;23.148;2024-02-14T03:58:03;93509.38;;;4.90;100.00
10606;BME280;5350;42.698;23.148;2024-02-14T04:00:31;93508.53;;;4.79;100.00
10606;BME280;5350;42.698;23.148;2024-02-14T04:03:00;93514.03;;;4.93;100.00
10606;BME280;5350;42.698;23.148;2024-02-14T04:05:28;93513.00;;;4.89;100.00
10606;BME280;5350;42.698;23.148;2024-02-14T04:07:56;93518.69;;;4.86;100.00
10606;BME280;5350;42.698;23.148;2024-02-14T04:10:22;93518.22;;;4.89;100.00
10606;BME280;5350;42.698;23.148;2024-02-14T04:12:49;93504.63;;;4.82;100.00
10606;BME280;5350;42.698;23.148;2024-02-14T04:15:16;93509.56;;;4.78;100.00
10606;BME280;5350;42.698;23.148;2024-02-14T04:17:42;93518.19;;;4.79;100.00
10606;BME280;5350;42.698;23.148;2024-02-14T04:20:09;93521.88;;;4.88;100.00
10606;BME280;5350;42.698;23.148;2024-02-14T04:22:36;93520.28;;;4.87;100.00
10606;BME280;5350;42.698;23.148;2024-02-14T04:25:07;93527.09;;;4.88;100.00
10606;BME280;5350;42.698;23.148;2024-02-14T04:27:34;93526.06;;;4.94;100.00
10606;BME280;5350;42.698;23.148;2024-02-14T04:30:01;93525.00;;;4.90;100.00
10606;BME280;5350;42.698;23.148;2024-02-14T04:32:28;93548.94;;;4.82;100.00
10606;BME280;5350;42.698;23.148;2024-02-14T04:34:54;93532.28;;;4.88;100.00
10606;BME280;5350;42.698;23.148;2024-02-14T04:37:21;93523.91;;;4.86;100.00
10606;BME280;5350;42.698;23.148;2024-02-14T04:39:48;93527.06;;;4.83;100.00
10606;BME280;5350;42.698;23.148;2024-02-14T04:42:16;93538.25;;;4.83;100.00
10606;BME280;5350;42.698;23.148;2024-02-14T04:44:43;93542.19;;;4.91;100.00
10606;BME280;5350;42.698;23.148;2024-02-14T04:47:09;93553.38;;;4.81;100.00
10606;BME280;5350;42.698;23.148;2024-02-14T04:49:36;93540.06;;;4.78;100.00
10606;BME280;5350;42.698;23.148;2024-02-14T04:52:04;93538.75;;;4.75;100.00
10606;BME280;5350;42.698;23.148;2024-02-14T04:54:30;93540.56;;;4.80;100.00
10606;BME280;5350;42.698;23.148;2024-02-14T04:56:57;93534.06;;;4.77;100.00
10606;BME280;5350;42.698;23.148;2024-02-14T04:59:25;93535.38;;;4.80;100.00
10606;BME280;5350;42.698;23.148;2024-02-14T05:01:52;93541.63;;;4.79;100.00
10606;BME280;5350;42.698;23.148;2024-02-14T05:04:19;93547.63;;;4.84;100.00
10606;BME280;5350;42.698;23.148;2024-02-14T05:06:46;93539.28;;;4.82;100.00
10606;BME280;5350;42.698;23.148;2024-02-14T05:09:12;93558.59;;;4.86;100.00
10606;BME280;5350;42.698;23.148;2024-02-14T05:11:40;93568.22;;;4.86;100.00
10606;BME280;5350;42.698;23.148;2024-02-14T05:14:07;93562.22;;;4.80;100.00
10606;BME280;5350;42.698;23.148;2024-02-14T05:16:35;93571.31;;;4.73;100.00
10606;BME280;5350;42.698;23.148;2024-02-14T05:19:02;93577.81;;;4.70;100.00
10606;BME280;5350;42.698;23.148;2024-02-14T05:21:28;93580.09;;;4.62;100.00
10606;BME280;5350;42.698;23.148;2024-02-14T05:23:55;93577.50;;;4.62;100.00
10606;BME280;5350;42.698;23.148;2024-02-14T05:26:22;93578.56;;;4.61;100.00
10606;BME280;5350;42.698;23.148;2024-02-14T05:28:48;93579.63;;;4.65;100.00
10606;BME280;5350;42.698;23.148;2024-02-14T05:31:15;93590.75;;;4.55;100.00
10606;BME280;5350;42.698;23.148;2024-02-14T05:33:44;93587.19;;;4.66;100.00
10606;BME280;5350;42.698;23.148;2024-02-14T05:36:10;93592.59;;;4.60;100.00
10606;BME280;5350;42.698;23.148;2024-02-14T05:38:37;93611.38;;;4.62;100.00
10606;BME280;5350;42.698;23.148;2024-02-14T05:41:04;93597.81;;;4.60;100.00
10606;BME280;5350;42.698;23.148;2024-02-14T05:43:32;93598.03;;;4.53;100.00
10606;BME280;5350;42.698;23.148;2024-02-14T05:45:59;93620.16;;;4.51;100.00
10606;BME280;5350;42.698;23.148;2024-02-14T05:48:26;93622.53;;;4.52;100.00
10606;BME280;5350;42.698;23.148;2024-02-14T05:50:54;93610.31;;;4.58;100.00
10606;BME280;5350;42.698;23.148;2024-02-14T05:53:21;93608.72;;;4.57;100.00
10606;BME280;5350;42.698;23.148;2024-02-14T05:55:47;93623.88;;;4.60;100.00
10606;BME280;5350;42.698;23.148;2024-02-14T05:58:14;93620.69;;;4.53;100.00
10606;BME280;5350;42.698;23.148;2024-02-14T06:00:41;93617.53;;;4.46;100.00
10606;BME280;5350;42.698;23.148;2024-02-14T06:03:07;93629.28;;;4.48;100.00
10606;BME280;5350;42.698;23.148;2024-02-14T06:05:34;93637.91;;;4.54;100.00
10606;BME280;5350;42.698;23.148;2024-02-14T06:08:02;93639.44;;;4.50;100.00
10606;BME280;5350;42.698;23.148;2024-02-14T06:10:29;93641.50;;;4.48;100.00
10606;BME280;5350;42.698;23.148;2024-02-14T06:12:56;93646.78;;;4.58;100.00
10606;BME280;5350;42.698;23.148;2024-02-14T06:15:23;93650.72;;;4.60;100.00
10606;BME280;5350;42.698;23.148;2024-02-14T06:17:49;93648.63;;;4.62;100.00
10606;BME280;5350;42.698;23.148;2024-02-14T06:20:16;93651.94;;;4.53;100.00
10606;BME280;5350;42.698;23.148;2024-02-14T06:22:43;93652.25;;;4.61;100.00
10606;BME280;5350;42.698;23.148;2024-02-14T06:25:11;93665.59;;;4.65;100.00
10606;BME280;5350;42.698;23.148;2024-02-14T06:27:37;93661.13;;;4.60;99.69
10606;BME280;5350;42.698;23.148;2024-02-14T06:30:05;93670.81;;;4.70;99.74
10606;BME280;5350;42.698;23.148;2024-02-14T06:32:32;93670.81;;;4.70;99.77
10606;BME280;5350;42.698;23.148;2024-02-14T06:34:59;93671.94;;;4.79;98.95
10606;BME280;5350;42.698;23.148;2024-02-14T06:37:25;93675.06;;;4.81;98.47
10606;BME280;5350;42.698;23.148;2024-02-14T06:39:52;93678.69;;;4.80;98.23
10606;BME280;5350;42.698;23.148;2024-02-14T06:42:20;93682.28;;;4.69;97.02
10606;BME280;5350;42.698;23.148;2024-02-14T06:44:46;93679.75;;;4.79;96.75
10606;BME280;5350;42.698;23.148;2024-02-14T06:47:14;93689.09;;;4.75;97.44
10606;BME280;5350;42.698;23.148;2024-02-14T06:49:41;93687.81;;;4.77;97.51
10606;BME280;5350;42.698;23.148;2024-02-14T06:52:08;93678.16;;;4.78;96.22
10606;BME280;5350;42.698;23.148;2024-02-14T06:54:35;93695.38;;;4.79;96.58
10606;BME280;5350;42.698;23.148;2024-02-14T06:57:01;93687.56;;;4.84;95.66
10606;BME280;5350;42.698;23.148;2024-02-14T06:59:29;93699.25;;;4.76;94.50
10606;BME280;5350;42.698;23.148;2024-02-14T07:01:56;93699.53;;;4.80;94.62
10606;BME280;5350;42.698;23.148;2024-02-14T07:04:23;93700.06;;;4.77;96.15
10606;BME280;5350;42.698;23.148;2024-02-14T07:06:52;93714.22;;;4.91;96.57
10606;BME280;5350;42.698;23.148;2024-02-14T07:09:19;93710.31;;;4.94;94.13
10606;BME280;5350;42.698;23.148;2024-02-14T07:11:46;93714.75;;;4.93;93.19
10606;BME280;5350;42.698;23.148;2024-02-14T07:14:12;93711.28;;;4.82;93.64
10606;BME280;5350;42.698;23.148;2024-02-14T07:16:41;93726.94;;;4.82;94.51
10606;BME280;5350;42.698;23.148;2024-02-14T07:19:07;93723.00;;;4.80;93.24
10606;BME280;5350;42.698;23.148;2024-02-14T07:21:34;93718.63;;;4.91;93.58
10606;BME280;5350;42.698;23.148;2024-02-14T07:24:03;93732.66;;;4.84;93.33
10606;BME280;5350;42.698;23.148;2024-02-14T07:26:30;93738.47;;;4.97;94.93
10606;BME280;5350;42.698;23.148;2024-02-14T07:28:56;93740.28;;;4.91;93.51
10606;BME280;5350;42.698;23.148;2024-02-14T07:31:23;93730.25;;;4.73;93.62
10606;BME280;5350;42.698;23.148;2024-02-14T07:33:51;93741.22;;;4.75;93.91
10606;BME280;5350;42.698;23.148;2024-02-14T07:36:19;93739.69;;;4.79;94.61
10606;BME280;5350;42.698;23.148;2024-02-14T07:38:46;93746.16;;;4.76;94.99
10606;BME280;5350;42.698;23.148;2024-02-14T07:41:12;93741.31;;;4.90;95.01
10606;BME280;5350;42.698;23.148;2024-02-14T07:43:39;93748.19;;;5.06;95.02
10606;BME280;5350;42.698;23.148;2024-02-14T07:46:05;93736.94;;;5.01;92.81
10606;BME280;5350;42.698;23.148;2024-02-14T07:48:32;93743.00;;;5.06;93.99
10606;BME280;5350;42.698;23.148;2024-02-14T07:51:00;93750.56;;;5.08;93.67
10606;BME280;5350;42.698;23.148;2024-02-14T07:53:27;93744.75;;;5.01;92.32
10606;BME280;5350;42.698;23.148;2024-02-14T07:55:54;93747.69;;;5.09;94.10
10606;BME280;5350;42.698;23.148;2024-02-14T07:58:20;93745.69;;;5.21;93.27
10606;BME280;5350;42.698;23.148;2024-02-14T08:00:47;93752.25;;;5.29;92.91
10606;BME280;5350;42.698;23.148;2024-02-14T08:03:14;93762.41;;;5.25;91.97
10606;BME280;5350;42.698;23.148;2024-02-14T08:05:40;93759.22;;;5.18;93.47
10606;BME280;5350;42.698;23.148;2024-02-14T08:08:09;93750.28;;;5.04;92.00
10606;BME280;5350;42.698;23.148;2024-02-14T08:10:36;93762.72;;;4.97;92.49
10606;BME280;5350;42.698;23.148;2024-02-14T08:13:02;93756.66;;;4.81;93.48
10606;BME280;5350;42.698;23.148;2024-02-14T08:15:30;93771.91;;;4.68;94.79
10606;BME280;5350;42.698;23.148;2024-02-14T08:17:57;93772.19;;;4.71;94.46
10606;BME280;5350;42.698;23.148;2024-02-14T08:20:24;93782.84;;;4.65;95.31
10606;BME280;5350;42.698;23.148;2024-02-14T08:22:51;93773.75;;;4.72;96.49
10606;BME280;5350;42.698;23.148;2024-02-14T08:25:19;93782.13;;;4.74;95.91
10606;BME280;5350;42.698;23.148;2024-02-14T08:27:46;93790.19;;;4.73;97.52
10606;BME280;5350;42.698;23.148;2024-02-14T08:30:13;93791.53;;;4.80;98.05
10606;BME280;5350;42.698;23.148;2024-02-14T08:32:40;93792.13;;;4.88;98.36
10606;BME280;5350;42.698;23.148;2024-02-14T08:35:07;93788.59;;;4.72;98.67
10606;BME280;5350;42.698;23.148;2024-02-14T08:37:35;93790.22;;;4.78;97.97
10606;BME280;5350;42.698;23.148;2024-02-14T08:40:04;93796.41;;;4.67;98.90
10606;BME280;5350;42.698;23.148;2024-02-14T08:42:33;93802.22;;;4.79;97.73
10606;BME280;5350;42.698;23.148;2024-02-14T08:45:00;93795.59;;;4.66;99.81
10606;BME280;5350;42.698;23.148;2024-02-14T08:47:27;93794.63;;;4.72;98.25
10606;BME280;5350;42.698;23.148;2024-02-14T08:49:54;93795.47;;;4.83;98.67
10606;BME280;5350;42.698;23.148;2024-02-14T08:52:21;93800.91;;;4.76;99.95
10606;BME280;5350;42.698;23.148;2024-02-14T08:54:48;93808.47;;;4.78;100.00
10606;BME280;5350;42.698;23.148;2024-02-14T08:57:14;93806.78;;;4.94;99.94
10606;BME280;5350;42.698;23.148;2024-02-14T08:59:42;93806.78;;;4.99;100.00
10606;BME280;5350;42.698;23.148;2024-02-14T09:02:12;93810.97;;;5.00;100.00
10606;BME280;5350;42.698;23.148;2024-02-14T09:04:39;93808.19;;;5.11;99.77
10606;BME280;5350;42.698;23.148;2024-02-14T09:07:07;93812.91;;;5.14;99.32
10606;BME280;5350;42.698;23.148;2024-02-14T09:09:34;93809.78;;;5.12;98.73
10606;BME280;5350;42.698;23.148;2024-02-14T09:12:02;93818.13;;;5.14;100.00
10606;BME280;5350;42.698;23.148;2024-02-14T09:14:28;93822.63;;;5.24;100.00
10606;BME280;5350;42.698;23.148;2024-02-14T09:16:57;93821.59;;;5.25;98.72
10606;BME280;5350;42.698;23.148;2024-02-14T09:19:23;93820.31;;;5.27;97.81
10606;BME280;5350;42.698;23.148;2024-02-14T09:21:50;93825.47;;;5.22;97.40
10606;BME280;5350;42.698;23.148;2024-02-14T09:24:17;93822.72;;;5.34;95.15
10606;BME280;5350;42.698;23.148;2024-02-14T09:26:43;93827.06;;;5.23;92.61
10606;BME280;5350;42.698;23.148;2024-02-14T09:29:10;93823.81;;;5.06;91.57
10606;BME280;5350;42.698;23.148;2024-02-14T09:31:37;93822.44;;;4.99;90.87
10606;BME280;5350;42.698;23.148;2024-02-14T09:34:05;93842.09;;;5.11;89.63
10606;BME280;5350;42.698;23.148;2024-02-14T09:36:31;93821.06;;;5.23;90.13
10606;BME280;5350;42.698;23.148;2024-02-14T09:38:58;93836.91;;;5.16;87.21
10606;BME280;5350;42.698;23.148;2024-02-14T09:41:29;93834.72;;;5.03;88.52
10606;BME280;5350;42.698;23.148;2024-02-14T09:43:59;93837.88;;;5.05;86.84
10606;BME280;5350;42.698;23.148;2024-02-14T09:46:25;93833.50;;;5.11;89.00
10606;BME280;5350;42.698;23.148;2024-02-14T09:48:52;93822.22;;;5.00;85.01
10606;BME280;5350;42.698;23.148;2024-02-14T09:51:21;93831.34;;;5.03;85.75
10606;BME280;5350;42.698;23.148;2024-02-14T09:53:48;93835.78;;;5.02;86.31
10606;BME280;5350;42.698;23.148;2024-02-14T09:56:19;93835.69;;;4.92;85.36
10606;BME280;5350;42.698;23.148;2024-02-14T09:58:48;93834.25;;;5.11;86.55
10606;BME280;5350;42.698;23.148;2024-02-14T10:01:24;93841.47;;;4.99;84.40
10606;BME280;5350;42.698;23.148;2024-02-14T10:03:52;93834.19;;;5.01;84.50
10606;BME280;5350;42.698;23.148;2024-02-14T10:06:21;93831.13;;;5.09;86.36
10606;BME280;5350;42.698;23.148;2024-02-14T10:08:49;93834.34;;;5.21;86.39
10606;BME280;5350;42.698;23.148;2024-02-14T10:11:16;93827.06;;;5.23;85.59
10606;BME280;5350;42.698;23.148;2024-02-14T10:13:46;93827.28;;;5.17;84.92
10606;BME280;5350;42.698;23.148;2024-02-14T10:16:13;93830.97;;;5.26;84.89
10606;BME280;5350;42.698;23.148;2024-02-14T10:18:40;93832.66;;;5.05;83.89
10606;BME280;5350;42.698;23.148;2024-02-14T10:21:08;93823.94;;;5.26;85.22
10606;BME280;5350;42.698;23.148;2024-02-14T10:23:42;93833.63;;;5.31;81.60
10606;BME280;5350;42.698;23.148;2024-02-14T10:26:09;93823.78;;;5.43;83.04
10606;BME280;5350;42.698;23.148;2024-02-14T10:28:36;93831.97;;;5.56;82.93
10606;BME280;5350;42.698;23.148;2024-02-14T10:31:05;93834.28;;;5.53;81.42
10606;BME280;5350;42.698;23.148;2024-02-14T10:33:34;93832.81;;;5.67;79.14
10606;BME280;5350;42.698;23.148;2024-02-14T10:36:01;93830.91;;;5.57;78.96
10606;BME280;5350;42.698;23.148;2024-02-14T10:38:31;93824.78;;;5.32;79.51
10606;BME280;5350;42.698;23.148;2024-02-14T10:41:00;93815.44;;;5.41;80.45
10606;BME280;5350;42.698;23.148;2024-02-14T10:43:27;93827.66;;;5.35;81.15
10606;BME280;5350;42.698;23.148;2024-02-14T10:45:54;93809.34;;;5.30;81.15
10606;BME280;5350;42.698;23.148;2024-02-14T10:48:22;93817.75;;;5.37;80.55
10606;BME280;5350;42.698;23.148;2024-02-14T10:50:52;93828.91;;;5.28;81.68
10606;BME280;5350;42.698;23.148;2024-02-14T10:53:20;93828.06;;;5.17;80.31
10606;BME280;5350;42.698;23.148;2024-02-14T10:55:49;93833.25;;;5.12;80.92
10606;BME280;5350;42.698;23.148;2024-02-14T10:58:18;93810.56;;;5.13;80.77
10606;BME280;5350;42.698;23.148;2024-02-14T11:00:45;93817.94;;;5.26;80.62
10606;BME280;5350;42.698;23.148;2024-02-14T11:03:13;93807.06;;;5.39;81.53
10606;BME280;5350;42.698;23.148;2024-02-14T11:05:44;93829.78;;;5.43;80.01
10606;BME280;5350;42.698;23.148;2024-02-14T11:08:13;93825.06;;;5.40;81.20
10606;BME280;5350;42.698;23.148;2024-02-14T11:10:40;93825.06;;;5.35;82.08
10606;BME280;5350;42.698;23.148;2024-02-14T11:13:10;93830.28;;;5.35;81.66
10606;BME280;5350;42.698;23.148;2024-02-14T11:15:38;93825.69;;;5.16;81.29
10606;BME280;5350;42.698;23.148;2024-02-14T11:18:06;93813.72;;;5.20;81.49
10606;BME280;5350;42.698;23.148;2024-02-14T11:20:35;93820.47;;;5.16;82.08
10606;BME280;5350;42.698;23.148;2024-02-14T11:23:03;93811.38;;;5.18;82.47
10606;BME280;5350;42.698;23.148;2024-02-14T11:25:32;93820.31;;;5.32;82.94
10606;BME280;5350;42.698;23.148;2024-02-14T11:27:59;93821.94;;;5.38;83.35
10606;BME280;5350;42.698;23.148;2024-02-14T11:30:31;93814.19;;;5.12;81.98
10606;BME280;5350;42.698;23.148;2024-02-14T11:33:13;93822.06;;;5.17;82.51
10606;BME280;5350;42.698;23.148;2024-02-14T11:35:40;93819.78;;;5.25;81.93
10606;BME280;5350;42.698;23.148;2024-02-14T11:38:08;93821.31;;;5.21;82.11
10606;BME280;5350;42.698;23.148;2024-02-14T11:40:34;93821.22;;;5.11;82.18
10606;BME280;5350;42.698;23.148;2024-02-14T11:43:01;93830.56;;;5.02;83.29
10606;BME280;5350;42.698;23.148;2024-02-14T11:45:28;93824.50;;;4.97;84.09
10606;BME280;5350;42.698;23.148;2024-02-14T11:47:55;93831.03;;;4.99;85.04
10606;BME280;5350;42.698;23.148;2024-02-14T11:50:23;93825.81;;;4.94;87.27
10606;BME280;5350;42.698;23.148;2024-02-14T11:52:50;93822.44;;;4.99;85.50
10606;BME280;5350;42.698;23.148;2024-02-14T11:55:18;93831.78;;;4.95;85.74
10606;BME280;5350;42.698;23.148;2024-02-14T11:57:53;93813.41;;;5.11;85.41
10606;BME280;5350;42.698;23.148;2024-02-14T12:00:20;93818.34;;;5.08;85.45
10606;BME280;5350;42.698;23.148;2024-02-14T12:02:47;93817.59;;;5.12;86.61
10606;BME280;5350;42.698;23.148;2024-02-14T12:05:15;93817.63;;;5.17;83.51
10606;BME280;5350;42.698;23.148;2024-02-14T12:07:43;93811.41;;;5.23;84.46
10606;BME280;5350;42.698;23.148;2024-02-14T12:10:10;93821.63;;;5.30;83.49
10606;BME280;5350;42.698;23.148;2024-02-14T12:12:38;93814.09;;;5.38;82.29
10606;BME280;5350;42.698;23.148;2024-02-14T12:15:05;93812.81;;;5.41;81.90
10606;BME280;5350;42.698;23.148;2024-02-14T12:17:32;93816.28;;;5.51;81.82
10606;BME280;5350;42.698;23.148;2024-02-14T12:20:05;93827.25;;;5.53;77.88
10606;BME280;5350;42.698;23.148;2024-02-14T12:22:32;93814.19;;;5.48;77.34
10606;BME280;5350;42.698;23.148;2024-02-14T12:25:00;93811.78;;;5.42;76.65
10606;BME280;5350;42.698;23.148;2024-02-14T12:27:31;93813.66;;;5.51;77.04
10606;BME280;5350;42.698;23.148;2024-02-14T12:29:58;93809.50;;;5.55;77.39
10606;BME280;5350;42.698;23.148;2024-02-14T12:32:24;93812.69;;;5.62;77.52
10606;BME280;5350;42.698;23.148;2024-02-14T12:34:51;93809.84;;;5.74;75.82
10606;BME280;5350;42.698;23.148;2024-02-14T12:37:18;93807.25;;;5.74;75.58
10606;BME280;5350;42.698;23.148;2024-02-14T12:39:44;93806.72;;;5.72;75.46
10606;BME280;5350;42.698;23.148;2024-02-14T12:42:12;93810.91;;;5.73;75.19
10606;BME280;5350;42.698;23.148;2024-02-14T12:44:39;93804.16;;;5.82;75.00
10606;BME280;5350;42.698;23.148;2024-02-14T12:47:06;93804.94;;;5.83;75.63
10606;BME280;5350;42.698;23.148;2024-02-14T12:49:33;93808.41;;;5.88;75.05
10606;BME280;5350;42.698;23.148;2024-02-14T12:52:00;93806.81;;;5.87;75.16
10606;BME280;5350;42.698;23.148;2024-02-14T12:54:27;93804.94;;;5.78;74.84
10606;BME280;5350;42.698;23.148;2024-02-14T12:56:53;93815.13;;;5.79;74.24
10606;BME280;5350;42.698;23.148;2024-02-14T12:59:21;93810.69;;;5.80;74.98
10606;BME280;5350;42.698;23.148;2024-02-14T13:01:48;93819.28;;;5.75;74.16
10606;BME280;5350;42.698;23.148;2024-02-14T13:04:15;93808.09;;;5.85;73.46
10606;BME280;5350;42.698;23.148;2024-02-14T13:06:42;93821.47;;;5.88;73.31